createdAt,value
2018-10-16T00:01:31.133Z,99.90
2018-10-16T00:04:05.226Z,99.90
2018-10-16T00:06:39.968Z,99.90
2018-10-16T00:09:14.790Z,99.90
2018-10-16T00:11:48.873Z,99.90
2018-10-16T00:14:23.692Z,99.90
2018-10-16T00:16:58.425Z,99.90
2018-10-16T00:19:32.308Z,99.90
2018-10-16T00:22:06.330Z,99.90
2018-10-16T00:24:41.080Z,99.90
2018-10-16T00:27:15.027Z,99.90
2018-10-16T00:29:49.090Z,99.90
2018-10-16T00:32:23.079Z,99.90
2018-10-16T00:34:57.191Z,99.90
2018-10-16T00:37:31.993Z,99.90
2018-10-16T00:40:05.860Z,99.90
2018-10-16T00:42:39.860Z,99.90
2018-10-16T00:45:13.885Z,99.90
2018-10-16T00:47:47.865Z,99.90
2018-10-16T00:50:21.937Z,99.90
2018-10-16T00:52:55.996Z,99.90
2018-10-16T00:55:30.058Z,99.90
2018-10-16T00:58:04.190Z,99.90
2018-10-16T01:00:38.120Z,99.90
2018-10-16T01:03:12.153Z,99.90
2018-10-16T01:05:46.176Z,99.90
2018-10-16T01:08:20.185Z,99.90
2018-10-16T01:10:54.280Z,99.90
2018-10-16T01:13:28.414Z,99.90
2018-10-16T01:16:03.271Z,99.90
2018-10-16T01:18:37.374Z,99.90
2018-10-16T01:21:11.438Z,99.90
2018-10-16T01:23:45.457Z,99.90
2018-10-16T01:26:19.368Z,99.90
2018-10-16T01:28:53.336Z,99.90
2018-10-16T01:31:27.390Z,99.90
2018-10-16T01:34:02.206Z,99.90
2018-10-16T01:36:36.051Z,99.90
2018-10-16T01:39:10.061Z,99.90
2018-10-16T01:41:44.111Z,99.90
2018-10-16T01:44:18.173Z,99.90
2018-10-16T01:46:52.237Z,99.90
2018-10-16T01:49:26.300Z,99.90
2018-10-16T01:52:00.389Z,99.90
2018-10-16T01:54:35.254Z,99.90
2018-10-16T01:57:09.158Z,99.90
2018-10-16T01:59:43.254Z,99.90
2018-10-16T02:02:17.378Z,99.90
2018-10-16T02:04:51.385Z,99.90
2018-10-16T02:07:25.477Z,99.90
2018-10-16T02:09:59.541Z,99.90
2018-10-16T02:12:33.560Z,99.90
2018-10-16T02:15:07.651Z,99.90
2018-10-16T02:17:42.476Z,99.90
2018-10-16T02:20:16.452Z,99.90
2018-10-16T02:22:50.499Z,99.90
2018-10-16T02:25:24.534Z,99.90
2018-10-16T02:27:58.549Z,99.90
2018-10-16T02:30:32.637Z,99.90
2018-10-16T02:33:07.518Z,99.90
2018-10-16T02:35:41.394Z,99.90
2018-10-16T02:38:15.477Z,99.90
2018-10-16T02:40:49.525Z,99.90
2018-10-16T02:43:23.536Z,99.90
2018-10-16T02:45:57.618Z,99.90
2018-10-16T02:48:32.358Z,99.90
2018-10-16T02:51:06.329Z,99.90
2018-10-16T02:53:40.340Z,99.90
2018-10-16T02:56:14.465Z,99.90
2018-10-16T02:58:49.265Z,99.90
2018-10-16T03:01:23.277Z,99.90
2018-10-16T03:03:58.120Z,99.90
2018-10-16T03:06:32.241Z,99.90
2018-10-16T03:09:06.286Z,99.90
2018-10-16T03:11:40.326Z,99.90
2018-10-16T03:14:14.361Z,99.90
2018-10-16T03:16:48.361Z,99.90
2018-10-16T03:19:22.381Z,99.90
2018-10-16T03:21:56.488Z,99.90
2018-10-16T03:24:31.247Z,99.90
2018-10-16T03:27:05.113Z,99.90
2018-10-16T03:29:39.149Z,99.90
2018-10-16T03:32:13.157Z,99.90
2018-10-16T03:34:47.110Z,99.90
2018-10-16T03:37:21.236Z,99.90
2018-10-16T03:39:55.195Z,99.90
2018-10-16T03:42:29.308Z,99.90
2018-10-16T03:45:03.357Z,99.90
2018-10-16T03:47:37.436Z,99.90
2018-10-16T03:50:11.472Z,99.90
2018-10-16T03:52:45.563Z,99.90
2018-10-16T03:55:19.577Z,99.90
2018-10-16T03:57:54.423Z,99.90
2018-10-16T04:00:28.428Z,99.90
2018-10-16T04:03:02.423Z,99.90
2018-10-16T04:05:36.432Z,99.90
2018-10-16T04:08:11.269Z,99.90
2018-10-16T04:10:45.132Z,99.90
2018-10-16T04:13:19.184Z,99.90
2018-10-16T04:15:53.228Z,99.90
2018-10-16T04:18:27.096Z,99.90
2018-10-16T04:21:01.106Z,99.90
2018-10-16T04:23:35.142Z,99.90
2018-10-16T04:26:09.248Z,99.90
2018-10-16T04:28:43.301Z,99.90
2018-10-16T04:31:17.367Z,99.90
2018-10-16T04:33:51.341Z,99.90
2018-10-16T04:36:25.398Z,99.90
2018-10-16T04:38:59.401Z,99.90
2018-10-16T04:41:33.569Z,99.90
2018-10-16T04:44:07.647Z,99.90
2018-10-16T04:46:41.806Z,99.90
2018-10-16T04:49:15.754Z,99.90
2018-10-16T04:51:49.889Z,99.90
2018-10-16T04:54:32.937Z,99.90
2018-10-16T04:57:06.953Z,99.90
2018-10-16T04:59:40.933Z,99.90
2018-10-16T05:02:14.944Z,99.90
2018-10-16T05:04:49.073Z,99.90
2018-10-16T05:07:23.912Z,99.90
2018-10-16T05:09:58.029Z,99.90
2018-10-16T05:12:32.120Z,99.90
2018-10-16T05:15:06.153Z,99.90
2018-10-16T05:17:40.135Z,99.90
2018-10-16T05:20:14.299Z,99.90
2018-10-16T05:22:48.361Z,99.90
2018-10-16T05:25:22.465Z,99.90
2018-10-16T05:27:56.581Z,99.90
2018-10-16T05:30:30.705Z,99.90
2018-10-16T05:33:04.811Z,99.90
2018-10-16T05:35:39.666Z,99.90
2018-10-16T05:38:13.841Z,99.90
2018-10-16T05:40:49.088Z,99.90
2018-10-16T05:43:23.868Z,99.90
2018-10-16T05:45:57.961Z,99.90
2018-10-16T05:48:31.974Z,99.90
2018-10-16T05:51:06.070Z,99.90
2018-10-16T05:53:40.080Z,99.90
2018-10-16T05:56:14.189Z,99.90
2018-10-16T05:58:49.057Z,99.90
2018-10-16T06:01:23.960Z,99.90
2018-10-16T06:03:57.866Z,99.90
2018-10-16T06:06:31.880Z,99.90
2018-10-16T06:09:05.953Z,99.90
2018-10-16T06:11:40.092Z,99.90
2018-10-16T06:14:14.176Z,99.90
2018-10-16T06:16:48.224Z,99.90
2018-10-16T06:19:22.305Z,99.90
2018-10-16T06:21:56.363Z,99.90
2018-10-16T06:24:30.526Z,99.90
2018-10-16T06:27:04.518Z,99.90
2018-10-16T06:29:38.370Z,99.90
2018-10-16T06:32:12.402Z,99.90
2018-10-16T06:34:46.496Z,99.90
2018-10-16T06:37:20.524Z,99.90
2018-10-16T06:39:54.601Z,99.90
2018-10-16T06:42:28.481Z,99.90
2018-10-16T06:45:02.507Z,99.90
2018-10-16T06:47:36.616Z,99.90
2018-10-16T06:50:10.564Z,99.90
2018-10-16T06:52:44.604Z,99.90
2018-10-16T06:55:19.406Z,99.90
2018-10-16T06:57:54.025Z,99.90
2018-10-16T07:00:27.949Z,99.90
2018-10-16T07:03:01.969Z,99.90
2018-10-16T07:05:35.896Z,99.90
2018-10-16T07:08:09.967Z,99.90
2018-10-16T07:10:44.009Z,99.90
2018-10-16T07:13:17.969Z,99.90
2018-10-16T07:15:51.982Z,99.90
2018-10-16T07:18:25.998Z,99.90
2018-10-16T07:21:00.159Z,99.90
2018-10-16T07:23:34.335Z,99.90
2018-10-16T07:26:08.385Z,99.90
2018-10-16T07:28:42.402Z,99.90
2018-10-16T07:31:16.433Z,99.90
2018-10-16T07:33:50.610Z,99.90
2018-10-16T07:36:24.713Z,99.90
2018-10-16T07:38:58.892Z,99.90
2018-10-16T07:41:32.875Z,99.90
2018-10-16T07:44:06.971Z,99.90
2018-10-16T07:46:41.067Z,99.90
2018-10-16T07:49:15.735Z,99.90
2018-10-16T07:51:49.887Z,99.90
2018-10-16T07:54:23.951Z,99.90
2018-10-16T07:56:57.949Z,99.90
2018-10-16T07:59:31.990Z,99.90
2018-10-16T08:02:05.959Z,99.90
2018-10-16T08:04:39.962Z,99.90
2018-10-16T08:07:14.069Z,99.90
2018-10-16T08:09:48.214Z,99.90
2018-10-16T08:12:22.252Z,99.90
2018-10-16T08:14:56.364Z,99.90
2018-10-16T08:17:30.456Z,99.90
2018-10-16T08:20:04.590Z,99.90
2018-10-16T08:22:39.415Z,99.90
2018-10-16T08:25:13.517Z,99.90
2018-10-16T08:27:47.642Z,99.90
2018-10-16T08:30:21.826Z,99.90
2018-10-16T08:32:55.858Z,99.90
2018-10-16T08:35:29.966Z,99.90
2018-10-16T08:38:04.101Z,99.90
2018-10-16T08:40:38.112Z,99.90
2018-10-16T08:46:52.956Z,99.90
2018-10-16T08:52:34.749Z,99.90
2018-10-16T08:55:08.805Z,99.90
2018-10-16T08:57:42.874Z,99.90
2018-10-16T09:00:16.939Z,99.90
2018-10-16T09:02:51.002Z,99.90
2018-10-16T09:05:25.015Z,99.90
2018-10-16T09:07:59.850Z,99.90
2018-10-16T09:10:34.488Z,99.90
2018-10-16T09:13:08.395Z,99.90
2018-10-16T09:15:42.375Z,99.90
2018-10-16T09:18:16.409Z,99.90
2018-10-16T09:20:50.510Z,99.90
2018-10-16T09:23:24.587Z,99.90
2018-10-16T09:25:58.694Z,99.90
2018-10-16T09:28:32.734Z,99.90
2018-10-16T09:31:06.729Z,99.90
2018-10-16T09:33:41.405Z,99.90
2018-10-16T09:36:15.378Z,99.90
2018-10-16T09:38:49.457Z,99.90
2018-10-16T09:41:23.488Z,99.90
2018-10-16T09:43:57.589Z,99.90
2018-10-16T09:46:31.725Z,99.90
2018-10-16T09:49:05.931Z,99.90
2018-10-16T09:51:39.986Z,99.90
2018-10-16T09:54:14.056Z,99.90
2018-10-16T09:56:48.073Z,99.90
2018-10-16T09:59:22.100Z,99.90
2018-10-16T10:01:56.918Z,99.90
2018-10-16T10:04:31.001Z,99.90
2018-10-16T10:07:05.133Z,99.90
2018-10-16T10:09:39.257Z,99.90
2018-10-16T10:12:14.085Z,99.90
2018-10-16T10:14:48.167Z,99.90
2018-10-16T10:17:22.307Z,99.90
2018-10-16T10:19:56.362Z,99.90
2018-10-16T10:22:30.502Z,99.90
2018-10-16T10:25:04.580Z,99.90
2018-10-16T10:27:38.573Z,99.90
2018-10-16T10:30:12.602Z,99.90
2018-10-16T10:32:46.684Z,99.90
2018-10-16T10:35:20.799Z,98.80
2018-10-16T10:37:54.886Z,97.10
2018-10-16T10:40:28.947Z,97.00
2018-10-16T10:43:03.010Z,95.70
2018-10-16T10:45:37.150Z,95.70
2018-10-16T10:48:11.233Z,96.00
2018-10-16T10:50:45.521Z,95.50
2018-10-16T10:53:19.442Z,94.40
2018-10-16T10:55:53.576Z,94.00
2018-10-16T10:58:27.577Z,93.60
2018-10-16T11:01:01.707Z,92.40
2018-10-16T11:03:36.630Z,91.40
2018-10-16T11:06:10.608Z,91.40
2018-10-16T11:08:44.650Z,91.10
2018-10-16T11:11:18.761Z,90.80
2018-10-16T11:13:52.885Z,90.50
2018-10-16T11:16:26.927Z,90.90
2018-10-16T11:19:01.013Z,90.90
2018-10-16T11:21:35.092Z,90.20
2018-10-16T11:24:09.225Z,89.60
2018-10-16T11:26:43.280Z,90.10
2018-10-16T11:29:17.345Z,89.10
2018-10-16T11:31:51.464Z,89.00
2018-10-16T11:34:25.619Z,88.30
2018-10-16T11:36:59.711Z,88.50
2018-10-16T11:39:34.479Z,86.30
2018-10-16T11:42:08.532Z,86.30
2018-10-16T11:44:42.433Z,86.90
2018-10-16T11:47:17.288Z,85.50
2018-10-16T11:49:52.200Z,84.50
2018-10-16T11:52:26.262Z,84.50
2018-10-16T11:55:00.350Z,82.10
2018-10-16T11:57:34.488Z,80.50
2018-10-16T12:00:08.602Z,80.60
2018-10-16T12:02:42.695Z,80.30
2018-10-16T12:05:17.501Z,78.60
2018-10-16T12:07:51.558Z,78.50
2018-10-16T12:10:25.617Z,77.50
2018-10-16T12:12:59.767Z,77.50
2018-10-16T12:15:34.581Z,76.90
2018-10-16T12:18:08.547Z,76.80
2018-10-16T12:20:43.402Z,76.60
2018-10-16T12:23:17.304Z,76.70
2018-10-16T12:25:51.345Z,76.90
2018-10-16T12:28:26.214Z,75.30
2018-10-16T12:31:00.385Z,75.80
2018-10-16T12:33:34.382Z,73.40
2018-10-16T12:36:08.500Z,73.20
2018-10-16T12:38:42.408Z,73.80
2018-10-16T12:41:16.461Z,72.20
2018-10-16T12:43:52.385Z,72.00
2018-10-16T12:46:27.289Z,71.80
2018-10-16T12:49:01.850Z,71.60
2018-10-16T12:51:36.654Z,71.00
2018-10-16T12:54:10.625Z,70.90
2018-10-16T12:56:44.679Z,72.60
2018-10-16T12:59:19.253Z,70.80
2018-10-16T13:01:54.078Z,69.40
2018-10-16T13:04:27.936Z,69.40
2018-10-16T13:07:01.951Z,67.80
2018-10-16T13:09:37.356Z,67.90
2018-10-16T13:12:12.395Z,68.30
2018-10-16T13:14:46.307Z,67.80
2018-10-16T13:17:20.384Z,67.50
2018-10-16T13:19:55.209Z,66.90
2018-10-16T13:22:29.044Z,66.90
2018-10-16T13:25:03.091Z,66.60
2018-10-16T13:27:37.286Z,66.50
2018-10-16T13:30:11.213Z,65.50
2018-10-16T13:32:46.138Z,65.80
2018-10-16T13:35:20.882Z,64.90
2018-10-16T13:37:54.847Z,64.90
2018-10-16T13:40:29.151Z,64.80
2018-10-16T13:43:03.118Z,64.30
2018-10-16T13:45:37.651Z,63.90
2018-10-16T13:48:12.275Z,63.60
2018-10-16T13:50:47.568Z,63.90
2018-10-16T13:53:21.928Z,63.60
2018-10-16T13:55:56.006Z,64.10
2018-10-16T13:58:30.030Z,64.20
2018-10-16T14:01:04.365Z,64.20
2018-10-16T14:03:38.721Z,64.10
2018-10-16T14:06:12.859Z,64.50
2018-10-16T14:08:47.280Z,64.40
2018-10-16T14:11:21.949Z,64.00
2018-10-16T14:13:56.326Z,64.00
2018-10-16T14:16:30.245Z,64.20
2018-10-16T14:19:04.168Z,64.50
2018-10-16T14:21:38.177Z,64.20
2018-10-16T14:24:12.194Z,63.80
2018-10-16T14:26:46.227Z,63.90
2018-10-16T14:29:20.328Z,64.50
2018-10-16T14:31:54.484Z,63.90
2018-10-16T14:34:28.613Z,63.70
2018-10-16T14:37:02.606Z,63.80
2018-10-16T14:39:36.597Z,64.50
2018-10-16T14:42:10.645Z,64.90
2018-10-16T14:44:52.576Z,65.00
2018-10-16T14:47:26.580Z,64.90
2018-10-16T14:50:01.354Z,65.30
2018-10-16T14:52:36.073Z,65.90
2018-10-16T14:55:10.201Z,65.70
2018-10-16T14:57:44.229Z,66.00
2018-10-16T15:00:19.018Z,65.80
2018-10-16T15:02:56.421Z,65.80
2018-10-16T15:05:31.137Z,65.90
2018-10-16T15:08:05.054Z,65.80
2018-10-16T15:10:39.084Z,65.70
2018-10-16T15:13:13.179Z,65.30
2018-10-16T15:15:47.273Z,66.20
2018-10-16T15:18:21.381Z,66.40
2018-10-16T15:20:55.401Z,66.30
2018-10-16T15:23:29.446Z,66.10
2018-10-16T15:26:04.357Z,66.00
2018-10-16T15:28:38.974Z,66.50
2018-10-16T15:31:13.915Z,66.50
2018-10-16T15:33:47.820Z,67.40
2018-10-16T15:36:21.832Z,68.30
2018-10-16T15:38:56.593Z,68.10
2018-10-16T15:41:33.766Z,68.10
2018-10-16T15:44:08.930Z,67.80
2018-10-16T15:46:42.889Z,67.80
2018-10-16T15:49:17.556Z,68.30
2018-10-16T15:51:51.680Z,68.30
2018-10-16T15:54:27.487Z,68.70
2018-10-16T15:57:03.365Z,68.60
2018-10-16T15:59:39.500Z,68.90
2018-10-16T16:02:13.472Z,69.60
2018-10-16T16:04:47.405Z,70.40
2018-10-16T16:07:21.429Z,70.80
2018-10-16T16:10:10.080Z,71.60
2018-10-16T16:12:43.991Z,72.20
2018-10-16T16:15:18.005Z,74.90
2018-10-16T16:17:52.047Z,75.90
2018-10-16T16:20:33.769Z,79.80
2018-10-16T16:23:08.450Z,81.30
2018-10-16T16:25:42.354Z,81.30
2018-10-16T16:28:16.460Z,84.80
2018-10-16T16:30:50.306Z,85.00
2018-10-16T16:33:24.381Z,86.30
2018-10-16T16:35:58.419Z,89.20
2018-10-16T16:38:32.513Z,90.80
2018-10-16T16:41:06.641Z,91.90
2018-10-16T16:43:40.579Z,92.70
2018-10-16T16:46:14.542Z,92.90
2018-10-16T16:48:48.600Z,93.10
2018-10-16T16:51:22.738Z,93.80
2018-10-16T16:53:57.874Z,94.60
2018-10-16T16:56:31.856Z,95.50
2018-10-16T16:59:06.015Z,96.40
2018-10-16T17:01:39.944Z,96.20
2018-10-16T17:04:13.809Z,97.70
2018-10-16T17:06:47.848Z,98.00
2018-10-16T17:09:21.908Z,98.40
2018-10-16T17:11:56.005Z,99.60
2018-10-16T17:14:30.110Z,99.90
2018-10-16T17:17:04.244Z,98.60
2018-10-16T17:19:38.305Z,99.90
2018-10-16T17:22:13.150Z,96.00
2018-10-16T17:24:47.314Z,96.00
2018-10-16T17:27:21.517Z,94.50
2018-10-16T17:29:55.556Z,94.00
2018-10-16T17:32:29.662Z,93.80
2018-10-16T17:35:03.919Z,93.70
2018-10-16T17:37:37.921Z,93.50
2018-10-16T17:40:12.145Z,93.70
2018-10-16T17:42:49.140Z,93.50
2018-10-16T17:45:23.189Z,94.00
2018-10-16T17:47:57.296Z,95.20
2018-10-16T17:50:31.193Z,95.70
2018-10-16T17:53:05.325Z,97.60
2018-10-16T17:55:40.184Z,99.60
2018-10-16T17:58:14.321Z,99.90
2018-10-16T18:00:48.555Z,99.70
2018-10-16T18:03:22.515Z,99.90
2018-10-16T18:05:56.593Z,99.90
2018-10-16T18:08:30.709Z,99.90
2018-10-16T18:11:04.783Z,99.90
2018-10-16T18:13:38.735Z,99.90
2018-10-16T18:16:12.848Z,99.90
2018-10-16T18:18:46.909Z,99.90
2018-10-16T18:21:21.106Z,99.90
2018-10-16T18:23:55.178Z,99.90
2018-10-16T18:26:29.233Z,99.90
2018-10-16T18:29:03.415Z,99.90
2018-10-16T18:31:37.563Z,99.90
2018-10-16T18:34:11.659Z,99.90
2018-10-16T18:36:45.597Z,99.90
2018-10-16T18:39:19.623Z,99.90
2018-10-16T18:41:53.683Z,99.90
2018-10-16T18:44:27.619Z,99.90
2018-10-16T18:47:01.701Z,99.90
2018-10-16T18:49:35.826Z,99.90
2018-10-16T18:52:11.041Z,99.90
2018-10-16T18:54:45.080Z,99.90
2018-10-16T18:57:19.219Z,99.90
2018-10-16T18:59:53.279Z,99.90
2018-10-16T19:02:27.309Z,99.90
2018-10-16T19:05:02.020Z,99.90
2018-10-16T19:07:36.033Z,99.90
2018-10-16T19:10:10.060Z,99.90
2018-10-16T19:12:44.888Z,99.90
2018-10-16T19:15:19.625Z,99.90
2018-10-16T19:17:54.273Z,99.90
2018-10-16T19:20:28.357Z,99.90
2018-10-16T19:23:03.206Z,99.90
2018-10-16T19:25:37.296Z,99.90
2018-10-16T19:28:11.353Z,99.90
2018-10-16T19:30:46.129Z,99.90
2018-10-16T19:33:20.175Z,99.90
2018-10-16T19:35:54.310Z,99.90
2018-10-16T19:38:28.374Z,99.90
2018-10-16T19:41:02.487Z,99.90
2018-10-16T19:43:36.597Z,99.90
2018-10-16T19:46:10.723Z,99.90
2018-10-16T19:48:44.835Z,99.90
2018-10-16T19:51:18.950Z,99.90
2018-10-16T19:53:53.053Z,99.90
2018-10-16T19:56:27.082Z,99.90
2018-10-16T19:59:01.081Z,99.90
2018-10-16T20:01:35.170Z,99.90
2018-10-16T20:04:09.234Z,99.90
2018-10-16T20:06:43.313Z,99.90
2018-10-16T20:09:17.433Z,99.90
2018-10-16T20:11:51.578Z,99.90
2018-10-16T20:14:25.607Z,99.90
2018-10-16T20:16:59.673Z,99.90
2018-10-16T20:19:33.768Z,99.90
2018-10-16T20:22:08.626Z,99.90
2018-10-16T20:24:42.826Z,99.90
2018-10-16T20:27:17.567Z,99.90
2018-10-16T20:29:51.677Z,99.90
2018-10-16T20:32:25.990Z,99.90
2018-10-16T20:35:00.134Z,99.90
2018-10-16T20:37:34.220Z,99.90
2018-10-16T20:40:08.299Z,99.90
2018-10-16T20:42:42.455Z,99.90
2018-10-16T20:45:16.595Z,99.90
2018-10-16T20:47:50.652Z,99.90
2018-10-16T20:50:24.664Z,99.90
2018-10-16T20:52:58.781Z,99.90
2018-10-16T20:55:32.801Z,99.90
2018-10-16T20:58:06.914Z,99.90
2018-10-16T21:00:41.059Z,99.90
2018-10-16T21:03:15.145Z,99.90
2018-10-16T21:05:49.366Z,99.90
2018-10-16T21:08:23.276Z,99.90
2018-10-16T21:10:57.469Z,99.90
2018-10-16T21:13:32.345Z,99.90
2018-10-16T21:16:06.425Z,99.90
2018-10-16T21:18:40.586Z,99.90
2018-10-16T21:21:14.677Z,99.90
2018-10-16T21:23:48.767Z,99.90
2018-10-16T21:26:23.625Z,99.90
2018-10-16T21:28:57.737Z,99.90
2018-10-16T21:31:32.689Z,99.90
2018-10-16T21:34:07.810Z,99.90
2018-10-16T21:36:41.892Z,99.90
2018-10-16T21:39:15.958Z,99.90
2018-10-16T21:41:50.670Z,99.90
2018-10-16T21:44:24.809Z,99.90
2018-10-16T21:46:58.907Z,99.90
2018-10-16T21:49:32.955Z,99.90
2018-10-16T21:52:06.910Z,99.90
2018-10-16T21:54:40.989Z,99.90
2018-10-16T21:57:14.965Z,99.90
2018-10-16T21:59:49.073Z,99.90
2018-10-16T22:02:23.050Z,99.90
2018-10-16T22:04:56.977Z,99.90
2018-10-16T22:07:30.985Z,99.90
2018-10-16T22:10:04.985Z,99.90
2018-10-16T22:12:39.061Z,99.90
2018-10-16T22:15:13.062Z,99.90
2018-10-16T22:17:47.100Z,99.90
2018-10-16T22:20:21.238Z,99.90
2018-10-16T22:22:55.291Z,99.90
2018-10-16T22:25:29.961Z,99.90
2018-10-16T22:28:04.092Z,99.90
2018-10-16T22:30:38.212Z,99.90
2018-10-16T22:33:12.390Z,99.90
2018-10-16T22:35:46.521Z,99.90
2018-10-16T22:38:20.626Z,99.90
2018-10-16T22:40:54.723Z,99.90
2018-10-16T22:43:28.865Z,99.90
2018-10-16T22:46:03.001Z,99.90
2018-10-16T22:48:37.088Z,99.90
2018-10-16T22:51:11.244Z,99.90
2018-10-16T22:53:45.134Z,99.90
2018-10-16T22:56:19.201Z,99.90
2018-10-16T22:58:53.415Z,99.90
2018-10-16T23:01:27.321Z,99.90
2018-10-16T23:04:02.199Z,99.90
2018-10-16T23:06:36.427Z,99.90
2018-10-16T23:09:10.480Z,99.90
2018-10-16T23:11:44.616Z,99.90
2018-10-16T23:14:18.706Z,99.90
2018-10-16T23:16:52.835Z,99.90
2018-10-16T23:19:26.889Z,99.90
2018-10-16T23:22:00.973Z,99.90
2018-10-16T23:24:35.069Z,99.90
2018-10-16T23:27:09.188Z,99.90
2018-10-16T23:29:43.301Z,99.90
2018-10-16T23:32:17.342Z,99.90
2018-10-16T23:34:51.440Z,99.90
2018-10-16T23:37:25.547Z,99.90
2018-10-16T23:39:59.713Z,99.90
2018-10-16T23:42:33.828Z,99.90
2018-10-16T23:45:07.969Z,99.90
2018-10-16T23:47:42.048Z,99.90
2018-10-16T23:50:16.121Z,99.90
2018-10-16T23:52:50.205Z,99.90
2018-10-16T23:55:24.349Z,99.90
2018-10-16T23:57:58.388Z,99.90
